createdAt,value
2018-12-07T00:00:37.455Z,84.70
2018-12-07T00:03:06.644Z,84.70
2018-12-07T00:05:35.659Z,84.70
2018-12-07T00:08:04.743Z,84.70
2018-12-07T00:10:33.927Z,84.90
2018-12-07T00:13:02.951Z,84.90
2018-12-07T00:15:31.987Z,84.80
2018-12-07T00:18:01.981Z,84.80
2018-12-07T00:20:30.953Z,85.70
2018-12-07T00:22:59.935Z,84.90
2018-12-07T00:25:28.924Z,84.70
2018-12-07T00:27:58.276Z,84.90
2018-12-07T00:30:27.197Z,84.80
2018-12-07T00:32:56.312Z,84.80
2018-12-07T00:35:26.693Z,84.70
2018-12-07T00:37:55.738Z,84.70
2018-12-07T00:40:24.845Z,84.70
2018-12-07T00:42:53.839Z,84.60
2018-12-07T00:45:22.893Z,85.00
2018-12-07T00:47:51.901Z,85.00
2018-12-07T00:50:20.953Z,84.70
2018-12-07T00:52:49.937Z,84.70
2018-12-07T00:55:30.281Z,84.70
2018-12-07T01:16:49.375Z,84.80
2018-12-07T01:19:18.390Z,84.80
2018-12-07T01:21:47.377Z,84.80
2018-12-07T01:24:16.386Z,85.00
2018-12-07T01:26:45.319Z,85.10
2018-12-07T01:29:14.351Z,85.10
2018-12-07T01:31:43.359Z,85.10
2018-12-07T01:34:12.457Z,85.10
2018-12-07T01:36:41.507Z,85.10
2018-12-07T01:39:10.581Z,85.00
2018-12-07T01:41:39.594Z,85.00
2018-12-07T01:44:08.607Z,85.00
2018-12-07T01:46:37.660Z,85.20
2018-12-07T01:49:06.677Z,85.10
2018-12-07T01:51:35.667Z,85.10
2018-12-07T01:54:04.689Z,85.20
2018-12-07T01:56:33.761Z,85.20
2018-12-07T01:59:02.739Z,85.20
2018-12-07T02:01:31.719Z,85.30
2018-12-07T02:04:01.422Z,85.10
2018-12-07T02:06:30.429Z,85.10
2018-12-07T02:08:59.475Z,85.10
2018-12-07T02:11:28.486Z,85.10
2018-12-07T02:13:57.415Z,85.20
2018-12-07T02:16:26.486Z,85.10
2018-12-07T02:18:55.496Z,85.00
2018-12-07T02:21:24.553Z,85.20
2018-12-07T02:23:53.587Z,85.10
2018-12-07T02:26:22.603Z,85.10
2018-12-07T02:28:51.611Z,85.30
2018-12-07T02:31:20.585Z,85.40
2018-12-07T02:33:49.664Z,85.40
2018-12-07T02:36:18.712Z,86.00
2018-12-07T02:38:47.714Z,85.30
2018-12-07T02:41:16.694Z,85.20
2018-12-07T02:43:45.723Z,85.20
2018-12-07T02:46:14.791Z,85.10
2018-12-07T02:48:43.816Z,85.10
2018-12-07T02:51:12.821Z,85.10
2018-12-07T02:53:42.370Z,85.10
2018-12-07T02:56:11.406Z,85.10
2018-12-07T02:58:40.388Z,85.10
2018-12-07T03:01:09.440Z,85.10
2018-12-07T03:03:38.387Z,85.80
2018-12-07T03:06:07.499Z,85.10
2018-12-07T03:08:37.356Z,85.10
2018-12-07T03:11:06.384Z,85.10
2018-12-07T03:13:35.445Z,85.10
2018-12-07T03:16:04.449Z,85.10
2018-12-07T03:18:33.492Z,85.10
2018-12-07T03:21:02.481Z,85.10
2018-12-07T03:23:31.443Z,85.20
2018-12-07T03:26:00.461Z,85.10
2018-12-07T03:28:29.421Z,85.10
2018-12-07T03:30:58.407Z,85.10
2018-12-07T03:33:27.514Z,85.10
2018-12-07T03:35:56.493Z,85.00
2018-12-07T03:38:25.670Z,85.00
2018-12-07T03:40:54.713Z,85.10
2018-12-07T03:43:23.737Z,85.00
2018-12-07T03:45:52.814Z,85.00
2018-12-07T03:48:21.798Z,85.20
2018-12-07T03:50:50.817Z,85.60
2018-12-07T03:53:19.799Z,85.10
2018-12-07T03:55:48.771Z,85.20
2018-12-07T03:58:17.906Z,85.50
2018-12-07T04:00:46.888Z,85.30
2018-12-07T04:03:15.952Z,85.40
2018-12-07T04:05:44.879Z,85.40
2018-12-07T04:08:13.817Z,85.40
2018-12-07T04:10:49.523Z,85.50
2018-12-07T04:13:18.489Z,85.50
2018-12-07T04:15:47.491Z,85.60
2018-12-07T04:18:16.488Z,85.80
2018-12-07T04:20:45.488Z,85.90
2018-12-07T04:23:14.423Z,85.60
2018-12-07T04:25:43.435Z,85.60
2018-12-07T04:28:14.439Z,85.60
2018-12-07T04:30:43.443Z,85.80
2018-12-07T04:33:12.544Z,85.60
2018-12-07T04:35:42.019Z,85.70
2018-12-07T04:38:11.061Z,85.80
2018-12-07T04:40:40.166Z,85.80
2018-12-07T04:43:09.533Z,85.80
2018-12-07T04:45:38.763Z,85.80
2018-12-07T04:48:07.779Z,85.80
2018-12-07T04:50:36.899Z,85.60
2018-12-07T04:53:06.000Z,86.20
2018-12-07T04:55:35.075Z,86.60
2018-12-07T04:58:04.141Z,85.90
2018-12-07T05:00:33.516Z,85.90
2018-12-07T05:03:02.762Z,85.80
2018-12-07T05:05:32.144Z,85.80
2018-12-07T05:08:01.290Z,85.80
2018-12-07T05:10:31.553Z,85.80
2018-12-07T05:13:01.046Z,86.60
2018-12-07T05:15:30.620Z,85.80
2018-12-07T05:18:00.226Z,85.80
2018-12-07T05:20:29.731Z,85.90
2018-12-07T05:22:58.958Z,85.90
2018-12-07T05:25:27.997Z,85.90
2018-12-07T05:27:57.219Z,85.90
2018-12-07T05:30:27.274Z,86.00
2018-12-07T05:32:56.353Z,86.60
2018-12-07T05:35:25.373Z,85.80
2018-12-07T05:37:54.427Z,85.90
2018-12-07T05:40:23.447Z,85.80
2018-12-07T05:42:52.469Z,85.80
2018-12-07T05:45:21.499Z,85.80
2018-12-07T05:47:50.496Z,85.30
2018-12-07T05:50:19.459Z,86.00
2018-12-07T05:52:48.427Z,85.80
2018-12-07T05:55:17.377Z,85.80
2018-12-07T05:57:46.441Z,85.80
2018-12-07T06:00:15.466Z,85.70
2018-12-07T06:02:44.583Z,85.70
2018-12-07T06:05:13.513Z,85.70
2018-12-07T06:07:42.518Z,85.70
2018-12-07T06:10:11.545Z,86.50
2018-12-07T06:12:40.624Z,85.70
2018-12-07T06:15:09.739Z,85.60
2018-12-07T06:17:38.697Z,85.60
2018-12-07T06:20:07.748Z,85.70
2018-12-07T06:22:36.903Z,85.70
2018-12-07T06:25:06.090Z,85.60
2018-12-07T06:27:35.111Z,85.90
2018-12-07T06:30:04.497Z,85.50
2018-12-07T06:32:36.255Z,85.40
2018-12-07T06:35:04.913Z,85.30
2018-12-07T06:37:33.936Z,85.30
2018-12-07T06:40:02.959Z,85.40
2018-12-07T06:42:32.059Z,85.30
2018-12-07T06:45:01.087Z,85.30
2018-12-07T06:47:30.147Z,85.20
2018-12-07T06:49:59.095Z,85.30
2018-12-07T06:52:28.124Z,85.20
2018-12-07T06:54:57.093Z,85.20
2018-12-07T06:57:26.139Z,85.20
2018-12-07T06:59:55.145Z,85.00
2018-12-07T07:02:24.667Z,85.10
2018-12-07T07:04:53.704Z,85.10
2018-12-07T07:07:22.758Z,85.10
2018-12-07T07:09:51.779Z,85.00
2018-12-07T07:12:20.822Z,85.00
2018-12-07T07:14:49.886Z,85.00
2018-12-07T07:17:19.005Z,84.90
2018-12-07T07:19:48.013Z,85.70
2018-12-07T07:22:17.063Z,85.00
2018-12-07T07:24:46.173Z,85.10
2018-12-07T07:27:15.192Z,85.00
2018-12-07T07:29:44.214Z,85.00
2018-12-07T07:32:13.201Z,85.00
2018-12-07T07:34:42.191Z,84.20
2018-12-07T07:37:11.193Z,84.90
2018-12-07T07:39:40.289Z,84.90
2018-12-07T07:42:09.388Z,84.80
2018-12-07T07:44:38.374Z,85.70
2018-12-07T07:47:07.453Z,84.80
2018-12-07T07:49:36.602Z,84.80
2018-12-07T07:52:05.649Z,84.80
2018-12-07T07:54:34.700Z,84.80
2018-12-07T07:57:03.646Z,84.80
2018-12-07T07:59:32.665Z,84.80
2018-12-07T08:02:01.718Z,84.80
2018-12-07T08:04:30.694Z,84.80
2018-12-07T08:06:59.734Z,84.80
2018-12-07T08:09:28.771Z,84.80
2018-12-07T08:11:57.771Z,84.80
2018-12-07T08:14:26.748Z,84.70
2018-12-07T08:16:55.807Z,84.80
2018-12-07T08:19:24.794Z,84.70
2018-12-07T08:21:54.795Z,84.70
2018-12-07T08:24:23.797Z,84.70
2018-12-07T08:26:52.761Z,84.70
2018-12-07T08:29:21.895Z,84.60
2018-12-07T08:31:50.931Z,84.50
2018-12-07T08:34:19.931Z,84.40
2018-12-07T08:36:50.987Z,84.30
2018-12-07T08:39:20.021Z,84.40
2018-12-07T08:41:49.085Z,84.40
2018-12-07T08:44:18.086Z,84.40
2018-12-07T08:46:47.101Z,84.50
2018-12-07T08:49:20.334Z,84.50
2018-12-07T08:51:49.354Z,84.40
2018-12-07T08:54:18.358Z,84.30
2018-12-07T08:56:47.341Z,84.20
2018-12-07T08:59:16.426Z,84.10
2018-12-07T09:01:45.659Z,83.90
2018-12-07T09:04:15.011Z,83.80
2018-12-07T09:06:44.287Z,83.90
2018-12-07T09:09:13.453Z,83.90
2018-12-07T09:11:42.684Z,83.80
2018-12-07T09:14:12.983Z,83.70
2018-12-07T09:16:42.360Z,83.70
2018-12-07T09:19:11.685Z,83.80
2018-12-07T09:21:40.786Z,83.80
2018-12-07T09:24:10.333Z,83.80
2018-12-07T09:26:39.770Z,83.60
2018-12-07T09:29:10.176Z,83.70
2018-12-07T09:31:39.419Z,83.80
2018-12-07T09:34:08.782Z,83.90
2018-12-07T09:36:38.212Z,83.90
2018-12-07T09:39:09.498Z,83.70
2018-12-07T09:41:38.712Z,83.50
2018-12-07T09:44:08.292Z,83.40
2018-12-07T09:46:37.504Z,83.30
2018-12-07T09:49:06.680Z,83.30
2018-12-07T09:51:35.884Z,82.90
2018-12-07T09:54:05.282Z,82.80
2018-12-07T09:56:34.773Z,82.50
2018-12-07T09:59:03.964Z,82.10
2018-12-07T10:01:33.062Z,81.90
2018-12-07T10:04:02.169Z,81.80
2018-12-07T10:06:31.300Z,81.70
2018-12-07T10:09:00.439Z,81.60
2018-12-07T10:11:29.602Z,81.60
2018-12-07T10:13:58.655Z,81.50
2018-12-07T10:16:27.666Z,82.50
2018-12-07T10:18:56.720Z,81.80
2018-12-07T10:21:25.746Z,82.00
2018-12-07T10:23:54.814Z,82.20
2018-12-07T10:26:23.895Z,82.30
2018-12-07T10:28:53.096Z,82.30
2018-12-07T10:31:22.149Z,82.20
2018-12-07T10:33:51.271Z,82.10
2018-12-07T10:36:20.322Z,81.80
2018-12-07T10:38:49.347Z,81.70
2018-12-07T10:41:18.405Z,81.60
2018-12-07T10:43:47.624Z,81.40
2018-12-07T10:46:17.839Z,81.20
2018-12-07T10:48:46.861Z,81.20
2018-12-07T10:51:15.862Z,81.20
2018-12-07T10:53:44.983Z,81.00
2018-12-07T10:56:14.061Z,81.10
2018-12-07T10:58:43.078Z,81.20
2018-12-07T11:01:17.467Z,81.20
2018-12-07T11:03:51.947Z,81.10
2018-12-07T11:06:26.439Z,81.10
2018-12-07T11:09:00.838Z,81.10
2018-12-07T11:11:35.858Z,81.10
2018-12-07T11:14:10.267Z,81.00
2018-12-07T11:16:44.949Z,81.10
2018-12-07T11:19:19.299Z,80.90
2018-12-07T11:21:53.542Z,80.70
2018-12-07T11:24:27.961Z,80.70
2018-12-07T11:27:13.329Z,80.60
2018-12-07T11:29:47.707Z,80.40
2018-12-07T11:32:22.253Z,80.20
2018-12-07T11:34:56.269Z,80.30
2018-12-07T11:37:25.343Z,80.10
2018-12-07T11:39:54.492Z,79.90
2018-12-07T11:42:25.635Z,79.80
2018-12-07T11:44:54.703Z,79.60
2018-12-07T11:47:23.732Z,79.10
2018-12-07T11:49:52.743Z,79.20
2018-12-07T11:52:21.762Z,79.10
2018-12-07T11:54:50.855Z,79.00
2018-12-07T11:57:19.821Z,78.90
2018-12-07T11:59:48.800Z,78.70
2018-12-07T12:02:17.817Z,78.50
2018-12-07T12:04:47.014Z,77.70
2018-12-07T12:07:16.018Z,77.70
2018-12-07T12:09:45.099Z,77.50
2018-12-07T12:12:16.144Z,77.50
2018-12-07T12:14:45.213Z,76.80
2018-12-07T12:17:14.193Z,77.20
2018-12-07T12:19:43.337Z,77.10
2018-12-07T12:22:12.341Z,77.00
2018-12-07T12:24:41.380Z,76.90
2018-12-07T12:27:10.423Z,76.60
2018-12-07T12:29:39.483Z,76.50
2018-12-07T12:32:08.546Z,76.50
2018-12-07T12:34:37.509Z,76.90
2018-12-07T12:37:06.562Z,76.50
2018-12-07T12:39:35.613Z,76.40
2018-12-07T12:42:04.585Z,76.40
2018-12-07T12:44:33.689Z,76.30
2018-12-07T12:47:02.863Z,76.30
2018-12-07T12:49:33.895Z,76.50
2018-12-07T12:52:02.893Z,76.30
2018-12-07T12:54:31.963Z,76.50
2018-12-07T12:57:00.921Z,76.60
2018-12-07T12:59:29.915Z,76.40
2018-12-07T13:01:58.942Z,76.50
2018-12-07T13:04:27.970Z,76.30
2018-12-07T13:06:57.038Z,76.80
2018-12-07T13:09:26.058Z,76.40
2018-12-07T13:11:55.096Z,76.50
2018-12-07T13:14:24.483Z,76.30
2018-12-07T13:16:53.515Z,76.40
2018-12-07T13:19:22.523Z,76.50
2018-12-07T13:21:51.584Z,77.30
2018-12-07T13:24:20.609Z,76.50
2018-12-07T13:26:49.657Z,76.50
2018-12-07T13:29:18.674Z,76.40
2018-12-07T13:31:47.708Z,76.40
2018-12-07T13:34:16.676Z,76.40
2018-12-07T13:36:45.649Z,76.30
2018-12-07T13:39:14.722Z,76.10
2018-12-07T13:41:50.583Z,76.00
2018-12-07T13:44:18.822Z,76.00
2018-12-07T13:46:48.157Z,76.20
2018-12-07T13:49:17.652Z,76.80
2018-12-07T13:51:47.028Z,76.30
2018-12-07T13:54:16.245Z,76.30
2018-12-07T13:56:45.598Z,76.30
2018-12-07T13:59:14.798Z,76.20
2018-12-07T14:01:44.459Z,76.20
2018-12-07T14:04:13.615Z,76.30
2018-12-07T14:06:42.861Z,76.20
2018-12-07T14:09:12.016Z,76.30
2018-12-07T14:11:41.131Z,76.20
2018-12-07T14:14:10.254Z,76.30
2018-12-07T14:16:39.390Z,76.40
2018-12-07T14:19:08.577Z,76.40
2018-12-07T14:21:39.108Z,76.30
2018-12-07T14:24:08.217Z,76.20
2018-12-07T14:26:37.296Z,76.40
2018-12-07T14:29:06.289Z,76.40
2018-12-07T14:31:35.442Z,76.40
2018-12-07T14:34:04.606Z,76.50
2018-12-07T14:36:33.936Z,76.60
2018-12-07T14:39:03.146Z,76.60
2018-12-07T14:41:34.334Z,76.60
2018-12-07T14:44:03.429Z,76.60
2018-12-07T14:46:32.672Z,76.60
2018-12-07T14:49:01.777Z,77.50
2018-12-07T14:51:30.867Z,76.60
2018-12-07T14:54:00.047Z,76.70
2018-12-07T14:56:29.157Z,76.80
2018-12-07T14:58:59.358Z,76.80
2018-12-07T15:01:29.169Z,76.80
2018-12-07T15:03:58.289Z,77.10
2018-12-07T15:06:27.554Z,77.10
2018-12-07T15:08:56.728Z,77.00
2018-12-07T15:11:26.171Z,77.10
2018-12-07T15:13:55.326Z,77.20
2018-12-07T15:16:24.570Z,77.30
2018-12-07T15:18:53.829Z,77.30
2018-12-07T15:21:22.915Z,77.40
2018-12-07T15:23:53.229Z,77.50
2018-12-07T15:26:23.064Z,77.60
2018-12-07T15:28:52.900Z,77.60
2018-12-07T15:31:22.783Z,77.90
2018-12-07T15:33:52.193Z,78.00
2018-12-07T15:36:21.223Z,78.10
2018-12-07T15:38:50.162Z,78.30
2018-12-07T15:41:19.159Z,78.30
2018-12-07T15:43:48.219Z,78.30
2018-12-07T15:46:17.483Z,78.40
2018-12-07T15:48:46.714Z,78.40
2018-12-07T15:51:16.073Z,78.50
2018-12-07T15:53:45.284Z,78.60
2018-12-07T15:56:14.547Z,78.60
2018-12-07T15:58:43.786Z,79.40
2018-12-07T16:01:13.069Z,78.70
2018-12-07T16:03:42.278Z,78.80
2018-12-07T16:06:11.759Z,79.10
2018-12-07T16:08:40.848Z,79.40
2018-12-07T16:11:10.199Z,79.50
2018-12-07T16:13:39.385Z,79.70
2018-12-07T16:16:08.576Z,79.90
2018-12-07T16:18:37.806Z,80.20
2018-12-07T16:21:06.980Z,80.40
2018-12-07T16:23:37.012Z,80.60
2018-12-07T16:26:06.352Z,80.80
2018-12-07T16:28:35.469Z,80.70
2018-12-07T16:31:04.701Z,80.70
2018-12-07T16:33:33.901Z,80.40
2018-12-07T16:36:03.492Z,80.50
2018-12-07T16:38:32.888Z,80.50
2018-12-07T16:41:02.208Z,80.60
2018-12-07T16:43:31.264Z,80.40
2018-12-07T16:46:00.543Z,80.40
2018-12-07T16:48:30.003Z,80.20
2018-12-07T16:50:59.187Z,80.20
2018-12-07T16:53:28.508Z,80.10
2018-12-07T16:55:57.847Z,80.20
2018-12-07T16:58:27.285Z,80.10
2018-12-07T17:00:56.519Z,80.10
2018-12-07T17:03:27.116Z,80.10
2018-12-07T17:05:56.507Z,80.00
2018-12-07T17:08:25.852Z,80.20
2018-12-07T17:10:54.907Z,80.20
2018-12-07T17:13:24.016Z,80.20
2018-12-07T17:15:53.247Z,80.20
2018-12-07T17:18:22.347Z,80.20
2018-12-07T17:20:51.643Z,80.00
2018-12-07T17:23:20.801Z,80.10
2018-12-07T17:25:49.912Z,80.20
2018-12-07T17:28:19.199Z,80.40
2018-12-07T17:30:48.368Z,80.40
2018-12-07T17:33:17.523Z,80.40
2018-12-07T17:35:46.726Z,80.40
2018-12-07T17:38:15.896Z,80.30
2018-12-07T17:40:45.312Z,80.30
2018-12-07T17:43:14.549Z,80.20
2018-12-07T17:45:44.109Z,80.10
2018-12-07T17:48:13.202Z,80.20
2018-12-07T17:50:42.182Z,80.00
2018-12-07T17:53:11.462Z,79.90
2018-12-07T17:55:40.900Z,79.80
2018-12-07T17:58:10.403Z,79.60
2018-12-07T18:00:39.561Z,79.60
2018-12-07T18:03:08.706Z,80.40
2018-12-07T18:05:37.856Z,79.70
2018-12-07T18:08:07.086Z,79.60
2018-12-07T18:10:36.510Z,79.80
2018-12-07T18:13:05.785Z,79.80
2018-12-07T18:15:34.873Z,79.70
2018-12-07T18:18:04.217Z,79.60
2018-12-07T18:20:33.159Z,79.70
2018-12-07T18:23:02.441Z,79.90
2018-12-07T18:25:31.707Z,79.80
2018-12-07T18:28:00.904Z,79.80
2018-12-07T18:30:30.237Z,80.20
2018-12-07T18:32:59.669Z,79.90
2018-12-07T18:35:28.923Z,79.70
2018-12-07T18:37:59.519Z,80.50
2018-12-07T18:40:29.063Z,79.80
2018-12-07T18:42:58.359Z,79.70
2018-12-07T18:45:27.671Z,79.60
2018-12-07T18:47:56.911Z,79.50
2018-12-07T18:50:26.047Z,79.60
2018-12-07T18:52:55.341Z,79.50
2018-12-07T18:55:24.643Z,79.50
2018-12-07T18:57:53.937Z,79.30
2018-12-07T19:00:23.131Z,79.20
2018-12-07T19:02:52.249Z,79.20
2018-12-07T19:05:21.540Z,79.20
2018-12-07T19:07:50.847Z,79.10
2018-12-07T19:10:19.974Z,78.80
2018-12-07T19:12:49.103Z,78.90
2018-12-07T19:15:18.132Z,78.80
2018-12-07T19:17:47.220Z,78.70
2018-12-07T19:20:16.249Z,78.90
2018-12-07T19:22:45.368Z,78.80
2018-12-07T19:25:14.595Z,78.80
2018-12-07T19:27:43.646Z,78.70
2018-12-07T19:30:14.762Z,78.80
2018-12-07T19:32:44.158Z,78.70
2018-12-07T19:35:13.329Z,78.60
2018-12-07T19:37:42.588Z,78.70
2018-12-07T19:40:11.970Z,78.50
2018-12-07T19:42:41.283Z,78.80
2018-12-07T19:45:11.090Z,78.90
2018-12-07T19:47:40.404Z,79.00
2018-12-07T19:50:09.657Z,79.00
2018-12-07T19:52:38.979Z,79.00
2018-12-07T19:55:08.288Z,79.00
2018-12-07T19:57:38.051Z,79.80
2018-12-07T20:00:09.124Z,79.10
2018-12-07T20:02:38.203Z,79.20
2018-12-07T20:05:08.679Z,79.20
2018-12-07T20:07:37.829Z,79.10
2018-12-07T20:10:07.914Z,79.20
2018-12-07T20:12:37.054Z,79.40
2018-12-07T20:15:07.854Z,79.40
2018-12-07T20:17:36.937Z,79.50
2018-12-07T20:20:07.066Z,79.50
2018-12-07T20:22:36.224Z,79.50
2018-12-07T20:25:05.614Z,79.70
2018-12-07T20:27:35.001Z,79.70
2018-12-07T20:30:04.576Z,79.60
2018-12-07T20:32:33.823Z,79.40
2018-12-07T20:35:03.029Z,79.50
2018-12-07T20:37:32.334Z,79.60
2018-12-07T20:40:01.605Z,79.50
2018-12-07T20:42:31.009Z,79.40
2018-12-07T20:45:00.076Z,79.50
2018-12-07T20:47:29.422Z,79.70
2018-12-07T20:49:58.801Z,79.40
2018-12-07T20:52:27.958Z,79.50
2018-12-07T20:54:57.043Z,79.50
2018-12-07T20:57:26.341Z,79.30
2018-12-07T20:59:55.504Z,79.20
2018-12-07T21:02:24.886Z,79.50
2018-12-07T21:04:56.761Z,79.60
2018-12-07T21:09:37.611Z,79.50
2018-12-07T21:12:26.539Z,79.50
2018-12-07T21:14:57.042Z,78.90
2018-12-07T21:17:34.774Z,79.30
2018-12-07T21:20:17.326Z,79.40
2018-12-07T21:22:46.438Z,79.50
2018-12-07T21:25:15.824Z,79.50
2018-12-07T21:27:45.285Z,79.70
2018-12-07T21:31:05.362Z,80.20
2018-12-07T21:33:57.855Z,79.60
2018-12-07T21:36:45.282Z,79.50
2018-12-07T21:39:28.891Z,79.40
2018-12-07T21:41:58.169Z,79.50
2018-12-07T21:44:27.590Z,79.50
2018-12-07T21:46:56.909Z,79.70
2018-12-07T21:49:27.976Z,79.70
2018-12-07T21:52:20.221Z,79.80
2018-12-07T21:54:49.554Z,79.80
2018-12-07T21:57:18.927Z,80.50
2018-12-07T21:59:48.023Z,79.70
2018-12-07T22:02:17.226Z,79.70
2018-12-07T22:04:46.260Z,79.80
2018-12-07T22:07:15.524Z,79.80
2018-12-07T22:09:44.808Z,79.80
2018-12-07T22:12:14.080Z,79.80
2018-12-07T22:14:43.548Z,79.00
2018-12-07T22:17:12.715Z,79.70
2018-12-07T22:19:41.902Z,79.00
2018-12-07T22:22:11.064Z,79.00
2018-12-07T22:24:40.267Z,79.00
2018-12-07T22:27:09.333Z,79.30
2018-12-07T22:29:38.531Z,78.90
2018-12-07T22:32:07.878Z,78.70
2018-12-07T22:34:37.063Z,78.30
2018-12-07T22:37:06.360Z,78.30
2018-12-07T22:39:35.409Z,78.30
2018-12-07T22:42:04.650Z,78.30
2018-12-07T22:44:33.849Z,78.10
2018-12-07T22:47:03.067Z,77.30
2018-12-07T22:49:32.253Z,77.20
2018-12-07T22:52:01.249Z,77.20
2018-12-07T22:54:30.297Z,77.10
2018-12-07T22:56:59.306Z,77.30
2018-12-07T22:59:28.373Z,77.30
2018-12-07T23:01:57.413Z,77.40
2018-12-07T23:04:26.463Z,77.30
2018-12-07T23:06:55.480Z,77.10
2018-12-07T23:09:24.545Z,77.20
2018-12-07T23:11:53.810Z,77.30
2018-12-07T23:14:22.836Z,77.80
2018-12-07T23:16:51.951Z,78.30
2018-12-07T23:19:21.102Z,78.60
2018-12-07T23:21:50.115Z,78.50
2018-12-07T23:24:19.168Z,78.60
2018-12-07T23:26:48.314Z,78.80
2018-12-07T23:29:22.636Z,79.00
2018-12-07T23:31:51.635Z,79.30
2018-12-07T23:34:20.685Z,79.00
2018-12-07T23:36:49.740Z,78.80
2018-12-07T23:39:18.721Z,78.80
2018-12-07T23:41:47.759Z,78.90
2018-12-07T23:44:16.987Z,78.80
2018-12-07T23:46:45.941Z,78.80
2018-12-07T23:49:14.926Z,79.20
2018-12-07T23:51:44.011Z,79.30
2018-12-07T23:54:13.032Z,79.30
2018-12-07T23:56:42.109Z,79.10
2018-12-07T23:59:11.128Z,78.80
